Time;durP1;ratioP1;P1;durP2;ratioP2;P2;SDS_P1;SDS_P2;PMS_P1;PMS_P2;Temp;Humidity;BMP_temperature;BMP_pressure;BME280_temperature;BME280_humidity;BME280_pressure;Samples;Min_cycle;Max_cycle;Signal;HPM_P1;HPM_P2
2022/08/10 00:01:41;;;;;;;4.90;2.60;;;;;;;18.19;58.14;101316.84;5076213;28;20064;-68
2022/08/10 00:04:08;;;;;;;4.18;2.25;;;;;;;18.14;58.25;101317.09;5090904;28;20048;-68
2022/08/10 00:06:36;;;;;;;3.42;2.70;;;;;;;18.10;58.65;101320.91;5089062;28;20056;-68
2022/08/10 00:09:05;;;;;;;3.25;2.38;;;;;;;18.10;58.60;101315.28;5096281;28;20541;-68
2022/08/10 00:11:32;;;;;;;3.10;2.42;;;;;;;18.07;58.55;101322.44;5081976;28;20509;-68
2022/08/10 00:13:59;;;;;;;2.83;2.55;;;;;;;18.02;58.68;101314.19;5074538;28;20065;-68
2022/08/10 00:16:27;;;;;;;3.33;2.72;;;;;;;17.99;58.91;101314.88;5067058;28;20051;-67
2022/08/10 00:18:54;;;;;;;5.85;3.45;;;;;;;17.97;59.09;101315.22;5075650;28;20135;-68
2022/08/10 00:21:21;;;;;;;3.38;3.05;;;;;;;17.94;59.44;101306.63;5075308;28;20056;-68
2022/08/10 00:23:49;;;;;;;5.22;2.67;;;;;;;17.87;59.50;101315.66;5075743;28;20048;-68
2022/08/10 00:26:17;;;;;;;3.28;2.38;;;;;;;17.84;59.36;101308.69;5076254;28;20056;-68
2022/08/10 00:28:45;;;;;;;6.00;2.80;;;;;;;17.81;59.51;101303.72;5075303;28;20045;-68
2022/08/10 00:31:12;;;;;;;3.58;2.78;;;;;;;17.79;59.72;101308.06;5089172;28;20463;-68
2022/08/10 00:33:39;;;;;;;4.35;2.50;;;;;;;17.78;59.81;101301.56;5075866;28;20059;-68
2022/08/10 00:36:07;;;;;;;3.40;2.60;;;;;;;17.74;59.73;101296.97;5074995;28;20044;-68
2022/08/10 00:38:35;;;;;;;3.90;3.00;;;;;;;17.73;59.71;101295.34;5075654;28;20488;-68
2022/08/10 00:41:03;;;;;;;3.57;2.77;;;;;;;17.70;60.00;101302.50;5075150;28;20049;-68
2022/08/10 00:43:32;;;;;;;3.08;2.60;;;;;;;17.66;59.94;101293.06;5082479;28;20507;-68
2022/08/10 00:45:59;;;;;;;2.88;2.20;;;;;;;17.60;60.10;101303.69;5095153;28;20052;-67
2022/08/10 00:48:27;;;;;;;2.95;2.40;;;;;;;17.61;59.98;101299.69;5074921;28;20056;-67
2022/08/10 00:50:54;;;;;;;4.25;2.70;;;;;;;17.60;60.00;101297.25;5075094;28;20052;-68
2022/08/10 00:53:22;;;;;;;3.63;2.70;;;;;;;17.59;60.16;101292.78;5075132;28;20465;-68
2022/08/10 00:55:49;;;;;;;4.20;2.97;;;;;;;17.54;60.24;101298.63;5075076;28;20063;-68
2022/08/10 00:58:17;;;;;;;4.20;2.75;;;;;;;17.47;60.35;101299.16;5078683;28;20388;-68
2022/08/10 01:00:47;;;;;;;4.80;2.92;;;;;;;17.43;60.32;101293.38;5095339;28;20079;-68
2022/08/10 01:03:14;;;;;;;3.35;2.50;;;;;;;17.40;60.54;101291.22;5079888;28;20056;-68
2022/08/10 01:06:01;;;;;;;3.33;2.58;;;;;;;17.36;60.72;101295.06;5075288;28;20056;-68
2022/08/10 01:08:36;;;;;;;3.92;2.97;;;;;;;17.32;60.84;101297.72;5074480;28;20493;-68
2022/08/10 01:11:09;;;;;;;3.75;2.88;;;;;;;17.29;60.84;101298.44;5071940;28;20056;-67
2022/08/10 01:13:41;;;;;;;3.15;2.75;;;;;;;17.25;61.12;101289.00;5069234;28;20067;-68
2022/08/10 01:16:18;;;;;;;4.82;3.05;;;;;;;17.28;60.73;101291.13;5074696;28;20068;-68
2022/08/10 01:18:53;;;;;;;4.15;3.08;;;;;;;17.27;60.77;101285.88;5074400;28;20071;-68
2022/08/10 01:21:53;;;;;;;4.45;2.58;;;;;;;17.23;60.97;101282.91;5074683;28;20080;-68
2022/08/10 01:24:50;;;;;;;4.75;3.08;;;;;;;17.14;61.43;101285.75;5072598;28;20045;-68
2022/08/10 01:27:28;;;;;;;5.13;2.90;;;;;;;17.01;61.82;101287.66;5094815;28;20063;-68
2022/08/10 01:30:04;;;;;;;3.15;2.83;;;;;;;16.96;61.92;101282.19;5074510;28;20048;-68
2022/08/10 01:32:40;;;;;;;3.38;2.75;;;;;;;16.98;61.80;101277.06;5074427;28;20057;-68
2022/08/10 01:35:13;;;;;;;4.10;3.20;;;;;;;16.95;62.07;101283.38;5074380;28;20052;-68
2022/08/10 01:37:48;;;;;;;5.35;3.08;;;;;;;16.89;62.20;101279.09;5074007;28;20049;-68
2022/08/10 01:40:21;;;;;;;4.72;3.13;;;;;;;16.88;62.14;101274.63;5093215;28;20487;-68
2022/08/10 01:42:51;;;;;;;3.72;3.30;;;;;;;16.81;62.36;101272.31;5091655;28;20059;-68
2022/08/10 01:45:22;;;;;;;3.33;2.78;;;;;;;16.81;62.30;101271.50;5054023;28;20052;-68
2022/08/10 01:50:42;;;;;;;3.45;3.08;;;;;;;16.75;62.63;101270.00;5055703;28;20060;-69
2022/08/10 01:53:22;;;;;;;5.50;3.13;;;;;;;16.73;62.40;101269.53;5062018;28;20055;-68
2022/08/10 01:55:51;;;;;;;7.15;3.13;;;;;;;16.70;62.41;101268.22;5074253;28;20075;-68
2022/08/10 01:58:21;;;;;;;5.72;3.15;;;;;;;16.69;62.43;101269.34;5073694;28;20056;-68
2022/08/10 02:00:52;;;;;;;3.95;3.17;;;;;;;16.72;62.29;101263.06;5073650;28;20056;-68
2022/08/10 02:03:22;;;;;;;3.40;3.00;;;;;;;16.72;62.38;101271.50;5073657;28;20053;-68
2022/08/10 02:05:54;;;;;;;6.05;3.22;;;;;;;16.70;62.42;101267.41;5073821;28;20053;-68
2022/08/10 02:08:24;;;;;;;3.50;3.00;;;;;;;16.63;62.50;101282.81;5078277;28;20500;-68
2022/08/10 02:10:53;;;;;;;4.22;3.20;;;;;;;16.59;62.89;101279.00;5075475;28;20056;-68
2022/08/10 02:13:22;;;;;;;4.45;3.17;;;;;;;16.53;62.80;101271.91;5073631;28;20497;-69
2022/08/10 02:15:54;;;;;;;4.15;3.10;;;;;;;16.50;63.20;101272.56;5073294;28;20053;-68
2022/08/10 02:18:23;;;;;;;4.95;2.70;;;;;;;16.51;63.24;101279.84;5073879;28;20067;-68
2022/08/10 02:20:53;;;;;;;5.07;3.25;;;;;;;16.47;63.05;101275.25;5073029;28;20493;-68
2022/08/10 02:23:25;;;;;;;5.53;3.17;;;;;;;16.37;63.46;101279.22;5074894;28;20052;-68
2022/08/10 02:25:55;;;;;;;4.80;2.85;;;;;;;16.33;63.34;101281.88;5079578;28;20504;-68
2022/08/10 02:28:25;;;;;;;4.65;3.20;;;;;;;16.27;63.52;101276.75;5073315;28;20052;-68
2022/08/10 02:30:54;;;;;;;;;;;;;;;16.20;63.42;101280.91;5073760;28;20053;-69
2022/08/10 02:33:25;;;;;;;3.50;2.80;;;;;;;16.20;63.45;101277.28;5073433;28;19943;-68
2022/08/10 02:35:53;;;;;;;3.55;2.95;;;;;;;16.21;63.48;101281.72;5072991;28;20055;-68
2022/08/10 02:38:27;;;;;;;3.95;3.03;;;;;;;16.18;63.53;101283.22;5077175;28;20056;-68
2022/08/10 02:41:01;;;;;;;3.40;3.10;;;;;;;16.16;63.77;101277.09;5083035;28;20057;-68
2022/08/10 02:43:33;;;;;;;3.63;2.88;;;;;;;16.18;63.82;101277.59;5073442;28;20413;-68
2022/08/10 02:46:07;;;;;;;4.43;3.15;;;;;;;16.17;63.90;101280.75;5072697;28;20060;-68
2022/08/10 02:48:40;;;;;;;4.22;3.00;;;;;;;16.16;63.88;101271.47;5073121;28;20056;-68
2022/08/10 02:51:14;;;;;;;5.15;2.97;;;;;;;16.12;64.36;101273.31;5070771;28;20485;-68
2022/08/10 02:53:47;;;;;;;5.60;3.13;;;;;;;16.12;64.66;101272.50;5093480;28;20066;-69
2022/08/10 02:56:21;;;;;;;4.95;3.78;;;;;;;16.13;64.30;101282.59;5084743;28;20048;-68
2022/08/10 02:58:55;;;;;;;3.53;3.22;;;;;;;16.10;64.25;101275.63;5072707;28;20052;-68
2022/08/10 03:01:31;;;;;;;4.20;3.28;;;;;;;16.09;64.22;101278.78;5072319;28;20059;-69
2022/08/10 03:04:04;;;;;;;4.57;3.05;;;;;;;16.07;64.63;101273.50;5072942;28;20056;-68
2022/08/10 03:06:35;;;;;;;4.40;2.92;;;;;;;16.08;64.52;101289.19;5078444;28;20404;-68
2022/08/10 03:09:05;;;;;;;3.75;2.90;;;;;;;16.11;64.47;101282.91;5092799;28;20052;-68
2022/08/10 03:11:35;;;;;;;5.05;3.20;;;;;;;16.09;64.22;101278.78;5085523;28;20110;-68
2022/08/10 03:14:03;;;;;;;3.88;3.10;;;;;;;16.05;64.39;101281.44;5072313;28;20048;-68
2022/08/10 03:16:34;;;;;;;5.38;3.13;;;;;;;16.07;64.25;101283.91;5072409;28;20055;-68
2022/08/10 03:19:04;;;;;;;3.58;2.88;;;;;;;16.08;64.41;101279.94;5072821;28;20052;-69
2022/08/10 03:21:34;;;;;;;2.90;2.60;;;;;;;16.08;64.18;101277.94;5081272;28;20106;-68
2022/08/10 03:24:02;;;;;;;3.90;3.05;;;;;;;16.09;64.03;101273.16;5072290;28;20052;-68
2022/08/10 03:26:31;;;;;;;3.58;3.17;;;;;;;16.05;63.66;101284.22;5072097;28;20386;-68
2022/08/10 03:28:59;;;;;;;3.75;3.40;;;;;;;16.02;63.91;101279.25;5072284;28;20052;-69
2022/08/10 03:31:28;;;;;;;4.50;3.28;;;;;;;15.98;64.15;101286.69;5072124;28;20057;-68
2022/08/10 03:33:58;;;;;;;3.83;3.17;;;;;;;15.95;64.09;101284.56;5070613;28;20102;-68
2022/08/10 03:36:25;;;;;;;;;;;;;;;15.87;64.28;101293.81;5088542;28;20493;-68
2022/08/10 03:38:53;;;;;;;4.28;3.63;;;;;;;15.88;64.37;101284.25;5073773;28;19927;-61
2022/08/10 03:41:26;;;;;;;8.60;4.93;;;;;;;15.85;64.25;101290.50;5072075;28;20480;-61
2022/08/10 03:43:55;;;;;;;5.70;3.70;;;;;;;15.78;64.58;101282.59;5072158;28;20048;-61
2022/08/10 03:46:26;;;;;;;3.83;2.90;;;;;;;15.75;64.78;101284.09;5071928;28;20055;-61
2022/08/10 03:49:00;;;;;;;10.80;3.90;;;;;;;15.76;64.85;101288.53;5075757;28;20048;-61
2022/08/10 03:51:28;;;;;;;6.78;3.20;;;;;;;15.78;64.56;101277.78;5088824;28;20511;-61
2022/08/10 03:53:56;;;;;;;4.85;3.70;;;;;;;15.77;64.41;101284.56;5076635;28;20059;-61
2022/08/10 03:56:23;;;;;;;4.22;3.10;;;;;;;15.73;64.65;101280.78;5078572;28;20052;-61
2022/08/10 03:58:51;;;;;;;5.10;3.33;;;;;;;15.71;64.56;101276.63;5078677;28;20048;-61
2022/08/10 04:01:19;;;;;;;6.00;3.53;;;;;;;15.67;64.60;101273.63;5072089;28;20060;-61
2022/08/10 04:03:46;;;;;;;5.90;3.13;;;;;;;15.68;64.69;101280.88;5071927;28;20055;-61
2022/08/10 04:06:15;;;;;;;4.63;2.85;;;;;;;15.66;64.96;101273.97;5087468;28;20048;-61
2022/08/10 04:08:43;;;;;;;5.35;3.20;;;;;;;15.66;65.04;101271.16;5083100;28;20056;-61
2022/08/10 04:11:10;;;;;;;4.30;3.55;;;;;;;15.69;65.00;101281.75;5071847;28;20045;-61
2022/08/10 04:13:38;;;;;;;3.70;3.20;;;;;;;15.66;64.94;101277.59;5071884;28;20059;-61
2022/08/10 04:16:06;;;;;;;4.97;3.40;;;;;;;15.67;65.10;101273.63;5071668;28;20075;-61
2022/08/10 04:18:33;;;;;;;6.35;3.50;;;;;;;15.71;65.04;101277.44;5071679;28;20397;-61
2022/08/10 04:21:06;;;;;;;4.53;3.33;;;;;;;15.73;64.83;101277.97;5083115;28;20393;-61
2022/08/10 04:23:40;;;;;;;5.63;2.72;;;;;;;15.83;64.69;101272.03;5088323;28;20413;-61
2022/08/10 04:26:08;;;;;;;6.90;3.10;;;;;;;15.89;64.56;101275.47;5071856;28;20049;-61
2022/08/10 04:28:36;;;;;;;4.05;2.88;;;;;;;15.95;64.41;101284.56;5071558;28;20059;-61
2022/08/10 04:31:06;;;;;;;4.85;3.08;;;;;;;15.98;64.15;101284.75;5071770;28;20076;-61
2022/08/10 04:33:34;;;;;;;4.60;3.20;;;;;;;16.01;64.08;101288.88;5073802;28;20052;-61
2022/08/10 04:36:05;;;;;;;5.22;3.30;;;;;;;16.02;64.03;101279.25;5071783;28;20515;-61
2022/08/10 04:38:36;;;;;;;5.80;3.67;;;;;;;15.98;63.89;101281.09;5071847;28;20433;-61
2022/08/10 04:41:04;;;;;;;5.05;2.95;;;;;;;15.96;63.93;101281.44;5071454;28;20405;-62
2022/08/10 04:43:31;;;;;;;5.55;3.08;;;;;;;15.92;64.03;101280.44;5071751;28;20056;-65
2022/08/10 04:46:00;;;;;;;5.32;3.95;;;;;;;15.91;64.15;101284.41;5074199;28;20052;-61
2022/08/10 04:48:27;;;;;;;7.30;3.55;;;;;;;15.92;63.90;101276.81;5080252;28;20051;-61
2022/08/10 04:50:56;;;;;;;5.55;3.30;;;;;;;15.96;63.92;101280.63;5073196;28;20052;-61
2022/08/10 04:53:24;;;;;;;;;;;;;;;15.95;63.88;101278.94;5065126;28;20060;-61
2022/08/10 04:55:52;;;;;;;4.90;3.50;;;;;;;15.93;63.92;101281.25;5078411;28;20288;-61
2022/08/10 04:58:20;;;;;;;4.63;3.15;;;;;;;15.94;63.99;101282.94;5094913;28;20059;-62
2022/08/10 05:00:47;;;;;;;6.25;3.83;;;;;;;15.96;64.00;101289.06;5082242;28;20424;-62
2022/08/10 05:03:14;;;;;;;5.07;3.30;;;;;;;16.02;64.00;101284.88;5075564;28;20412;-61
2022/08/10 05:05:42;;;;;;;4.47;3.38;;;;;;;16.05;64.07;101278.63;5078068;28;20492;-62
2022/08/10 05:08:09;;;;;;;5.60;3.58;;;;;;;16.02;64.23;101284.88;5095088;28;20392;-61
2022/08/10 05:10:36;;;;;;;6.00;3.70;;;;;;;16.11;64.13;101282.91;5071123;28;20057;-61
2022/08/10 05:13:05;;;;;;;5.40;3.65;;;;;;;16.15;64.13;101277.47;5074484;28;20054;-61
2022/08/10 05:15:32;;;;;;;6.43;3.77;;;;;;;16.22;63.88;101289.00;5073174;28;20404;-61
2022/08/10 05:17:59;;;;;;;4.20;3.58;;;;;;;16.25;63.68;101288.34;5074612;28;20527;-61
2022/08/10 05:20:27;;;;;;;5.95;3.80;;;;;;;16.30;63.57;101288.19;5074872;28;20049;-61
2022/08/10 05:22:54;;;;;;;4.68;3.50;;;;;;;16.38;63.22;101292.13;5074594;28;20055;-61
2022/08/10 05:25:21;;;;;;;5.05;3.60;;;;;;;16.45;63.65;101286.81;5072967;28;20059;-62
2022/08/10 05:27:49;;;;;;;5.40;3.80;;;;;;;16.48;63.75;101269.25;5070704;28;20053;-62
2022/08/10 05:30:19;;;;;;;8.00;4.40;;;;;;;16.48;63.71;101285.31;5072897;28;20056;-48
2022/08/10 05:32:47;;;;;;;12.00;4.63;;;;;;;16.22;64.52;101283.38;5073400;28;20055;-47
2022/08/10 05:35:15;;;;;;;4.47;4.07;;;;;;;16.29;64.61;101280.06;5072518;28;20044;-47
2022/08/10 05:37:44;;;;;;;7.45;4.90;;;;;;;16.27;64.73;101285.19;5072539;28;20051;-48
2022/08/10 05:40:12;;;;;;;5.70;4.30;;;;;;;16.41;64.35;101277.41;5072594;28;20056;-48
2022/08/10 05:42:44;;;;;;;7.30;4.05;;;;;;;16.52;64.06;101278.69;5068521;28;20067;-47
2022/08/10 05:45:21;;;;;;;6.88;4.38;;;;;;;16.70;63.65;101281.47;5071717;28;20485;-49
2022/08/10 05:47:48;;;;;;;6.60;4.80;;;;;;;16.84;63.22;101276.47;5084257;28;20044;-51
2022/08/10 05:50:19;;;;;;;5.03;3.75;;;;;;;16.98;63.08;101279.88;5091988;28;20048;-48
2022/08/10 05:52:46;;;;;;;8.00;4.70;;;;;;;17.17;62.26;101289.88;5077784;28;20056;-47
2022/08/10 05:55:14;;;;;;;6.07;4.53;;;;;;;17.23;62.23;101277.25;5086148;28;20052;-46
2022/08/10 05:57:42;;;;;;;6.72;4.75;;;;;;;17.41;61.94;101289.25;5073286;28;20055;-47
2022/08/10 06:00:13;;;;;;;7.00;4.63;;;;;;;17.55;61.58;101281.34;5072373;28;20048;-48
2022/08/10 06:02:44;;;;;;;6.63;3.95;;;;;;;17.68;61.83;101287.91;5073067;28;20316;-47
2022/08/10 06:05:13;;;;;;;9.63;5.10;;;;;;;17.83;61.35;101283.69;5073361;28;20512;-60
2022/08/10 06:07:46;;;;;;;6.30;4.75;;;;;;;17.97;61.26;101289.03;5073380;28;20064;-59
2022/08/10 06:10:15;;;;;;;7.20;4.68;;;;;;;18.08;60.35;101295.91;5073280;28;20056;-61
2022/08/10 06:12:46;;;;;;;6.40;4.70;;;;;;;18.15;59.99;101295.34;5075347;28;20385;-61
2022/08/10 06:15:16;;;;;;;9.57;5.25;;;;;;;18.24;59.81;101287.63;5073485;28;20052;-62
2022/08/10 06:17:44;;;;;;;7.70;4.97;;;;;;;18.34;59.49;101300.47;5073644;28;20049;-62
2022/08/10 06:20:12;;;;;;;5.57;5.00;;;;;;;18.42;59.30;101291.09;5089546;28;20374;-62
2022/08/10 06:22:39;;;;;;;8.35;5.20;;;;;;;18.53;59.32;101295.13;5086582;28;20052;-62
2022/08/10 06:25:08;;;;;;;6.70;5.00;;;;;;;18.62;59.57;101301.47;5069672;28;20511;-61
2022/08/10 06:27:37;;;;;;;7.85;7.13;;;;;;;18.69;59.73;101300.06;5069313;28;20055;-62
2022/08/10 06:30:05;;;;;;;7.20;6.28;;;;;;;18.81;59.54;101294.50;5087275;28;20051;-62
2022/08/10 06:32:33;;;;;;;8.85;5.38;;;;;;;18.84;59.90;101303.09;5090404;28;20083;-62
2022/08/10 06:35:07;;;;;;;9.23;5.88;;;;;;;18.95;59.82;101303.44;5073031;28;20063;-63
2022/08/10 06:37:36;;;;;;;6.95;5.20;;;;;;;19.10;60.12;101306.75;5079610;28;20055;-62
2022/08/10 06:40:04;;;;;;;;;;;;;;;19.17;59.96;101310.66;5073313;28;20052;-63
2022/08/10 06:42:34;;;;;;;7.13;5.38;;;;;;;19.30;59.21;101311.47;5072658;28;19939;-62
2022/08/10 06:45:05;;;;;;;7.65;5.10;;;;;;;19.43;59.02;101310.28;5072587;28;20060;-62
2022/08/10 06:47:41;;;;;;;8.32;5.03;;;;;;;19.51;58.70;101300.03;5072993;28;20048;-62
2022/08/10 06:50:15;;;;;;;7.82;5.15;;;;;;;19.69;58.69;101306.22;5074636;28;20051;-62
2022/08/10 06:52:46;;;;;;;5.85;4.70;;;;;;;19.84;58.74;101311.19;5093193;28;20051;-62
2022/08/10 06:55:15;;;;;;;7.93;4.63;;;;;;;20.00;58.06;101304.78;5072893;28;20056;-61
2022/08/10 06:57:43;;;;;;;7.30;4.32;;;;;;;20.08;57.32;101304.63;5072437;28;20056;-61
2022/08/10 07:00:13;;;;;;;6.22;4.63;;;;;;;20.17;57.29;101303.66;5071798;28;20053;-61
2022/08/10 07:02:50;;;;;;;8.00;4.78;;;;;;;20.34;56.51;101299.69;5072199;28;20444;-61
2022/08/10 07:05:21;;;;;;;4.78;3.75;;;;;;;20.54;55.87;101303.50;5055244;28;20049;-61
2022/08/10 07:07:52;;;;;;;5.75;3.95;;;;;;;20.70;54.91;101293.03;5052310;28;20053;-61
2022/08/10 07:10:21;;;;;;;5.75;3.65;;;;;;;20.88;54.53;101287.84;5068181;28;20056;-61
2022/08/10 07:12:51;;;;;;;5.28;3.35;;;;;;;21.09;54.32;101294.03;5072361;28;20052;-61
2022/08/10 07:15:19;;;;;;;5.25;3.67;;;;;;;21.30;53.46;101290.09;5071972;28;20052;-61
2022/08/10 07:17:48;;;;;;;5.83;3.20;;;;;;;21.49;52.94;101293.00;5074216;28;20044;-60
2022/08/10 07:20:20;;;;;;;4.25;3.00;;;;;;;21.70;52.37;101300.38;5079345;28;20467;-60
2022/08/10 07:22:50;;;;;;;4.68;3.03;;;;;;;21.82;51.09;101296.59;5072078;28;20142;-60
2022/08/10 07:25:21;;;;;;;7.30;3.22;;;;;;;22.00;50.28;101294.13;5071927;28;20048;-61
2022/08/10 07:27:49;;;;;;;5.35;3.08;;;;;;;22.63;48.65;101296.63;5071951;28;20048;-60
2022/08/10 07:30:17;;;;;;;4.80;3.17;;;;;;;23.37;47.26;101288.97;5071846;28;20461;-60
2022/08/10 07:32:48;;;;;;;5.68;2.80;;;;;;;24.11;45.22;101294.13;5085108;28;20052;-61
2022/08/10 07:35:17;;;;;;;4.47;2.38;;;;;;;24.70;43.50;101288.72;5080274;28;20048;-61
2022/08/10 07:37:48;;;;;;;3.45;2.72;;;;;;;25.34;42.52;101291.31;5071785;28;20389;-60
2022/08/10 07:40:17;;;;;;;5.65;3.05;;;;;;;25.96;40.41;101281.13;5071567;28;20048;-61
2022/08/10 07:42:47;;;;;;;3.47;2.63;;;;;;;26.86;38.74;101283.00;5072236;28;20052;-62
2022/08/10 07:45:14;;;;;;;6.30;3.00;;;;;;;27.30;37.38;101283.88;5071484;28;20049;-62
2022/08/10 07:47:46;;;;;;;3.78;2.30;;;;;;;28.05;36.28;101280.81;5071687;28;20044;-62
2022/08/10 07:50:18;;;;;;;5.28;2.85;;;;;;;28.48;34.91;101283.47;5087862;28;20052;-62
2022/08/10 07:52:49;;;;;;;3.75;2.28;;;;;;;29.17;34.33;101280.13;5071685;28;20048;-62
2022/08/10 07:55:19;;;;;;;4.78;2.70;;;;;;;30.17;32.40;101270.41;5071510;28;20075;-62
2022/08/10 07:57:49;;;;;;;2.72;2.20;;;;;;;31.23;30.48;101277.88;5071733;28;20049;-61
2022/08/10 08:00:18;;;;;;;3.95;2.47;;;;;;;32.34;28.62;101275.69;5071297;28;20417;-62
2022/08/10 08:02:50;;;;;;;5.32;2.90;;;;;;;33.30;27.38;101288.25;5087307;28;20052;-63
2022/08/10 08:05:22;;;;;;;4.88;2.72;;;;;;;34.40;26.15;101279.78;5091473;28;20386;-63
2022/08/10 08:07:53;;;;;;;4.85;2.55;;;;;;;35.23;24.19;101275.03;5072144;28;20052;-63
2022/08/10 08:10:24;;;;;;;4.15;2.83;;;;;;;36.16;23.57;101271.63;5071664;28;20371;-63
2022/08/10 08:12:52;;;;;;;4.60;2.70;;;;;;;37.04;22.61;101270.56;5071737;28;20056;-62
2022/08/10 08:15:22;;;;;;;4.10;2.90;;;;;;;37.49;21.58;101284.41;5071106;28;20428;-63
2022/08/10 08:17:51;;;;;;;4.45;2.50;;;;;;;38.23;21.07;101280.66;5071827;28;20045;-62
2022/08/10 08:20:20;;;;;;;4.63;2.72;;;;;;;39.12;19.90;101272.50;5073581;28;20064;-63
2022/08/10 08:22:49;;;;;;;4.07;2.88;;;;;;;39.83;19.14;101273.75;5075479;28;20056;-63
2022/08/10 08:25:20;;;;;;;3.58;3.13;;;;;;;40.25;18.35;101272.69;5075240;28;20068;-63
2022/08/10 08:27:52;;;;;;;4.22;2.85;;;;;;;40.56;17.78;101271.38;5075195;28;20048;-63
2022/08/10 08:30:20;;;;;;;3.15;2.80;;;;;;;41.18;17.64;101270.22;5074984;28;20531;-63
2022/08/10 08:32:49;;;;;;;4.82;3.15;;;;;;;41.61;16.90;101265.97;5075503;28;20493;-63
2022/08/10 08:35:19;;;;;;;5.00;3.40;;;;;;;41.86;16.62;101265.19;5075120;28;20048;-63
2022/08/10 08:37:48;;;;;;;4.68;2.85;;;;;;;42.44;15.81;101262.28;5075251;28;20488;-63
2022/08/10 08:40:23;;;;;;;4.63;3.28;;;;;;;43.01;15.61;101269.38;5075333;28;20048;-63
2022/08/10 08:43:23;;;;;;;5.43;2.90;;;;;;;43.11;14.95;101256.06;5075126;28;20053;-63
2022/08/10 08:46:27;;;;;;;4.28;3.20;;;;;;;44.14;14.48;101255.09;5089243;28;20059;-62
2022/08/10 08:49:11;;;;;;;3.95;3.63;;;;;;;44.97;14.11;101256.38;5063205;28;20049;-62
2022/08/10 08:51:49;;;;;;;5.88;4.50;;;;;;;45.47;13.68;101251.66;5074704;28;20053;-62
2022/08/10 08:54:32;;;;;;;5.20;3.67;;;;;;;45.80;13.14;101252.00;5074833;28;20052;-62
2022/08/10 08:57:06;;;;;;;4.82;3.10;;;;;;;46.34;13.04;101252.13;5075144;28;20354;-62
2022/08/10 08:59:52;;;;;;;5.53;2.80;;;;;;;47.33;12.88;101246.25;5061170;28;20079;-62
2022/08/10 09:02:39;;;;;;;6.50;4.60;;;;;;;47.71;11.73;101243.34;5074746;28;20278;-62
2022/08/10 09:05:26;;;;;;;4.90;4.50;;;;;;;48.48;11.56;101248.53;5074654;28;20063;-62
2022/08/10 09:08:10;;;;;;;4.40;4.03;;;;;;;49.44;10.80;101239.94;5072413;28;20053;-62
2022/08/10 09:10:50;;;;;;;5.93;4.95;;;;;;;50.32;10.05;101231.56;5094984;28;20052;-63
2022/08/10 09:13:28;;;;;;;5.75;3.90;;;;;;;49.29;10.15;101231.59;5088328;28;20075;-62
2022/08/10 09:16:20;;;;;;;4.97;4.60;;;;;;;50.29;9.80;101224.63;5077502;28;20044;-61
2022/08/10 09:18:53;;;;;;;5.18;4.20;;;;;;;51.32;10.11;101223.34;5085316;28;20049;-62
2022/08/10 09:21:29;;;;;;;5.45;4.43;;;;;;;51.65;9.78;101220.72;5073530;28;20056;-62
2022/08/10 09:24:02;;;;;;;5.15;4.65;;;;;;;51.77;9.50;101218.97;5082266;28;20080;-62
2022/08/10 09:26:38;;;;;;;5.60;5.20;;;;;;;52.13;9.34;101212.13;5074570;28;20060;-62
2022/08/10 09:29:12;;;;;;;5.07;4.68;;;;;;;52.33;9.08;101214.06;5073825;28;20504;-62
2022/08/10 09:31:45;;;;;;;6.88;5.93;;;;;;;52.89;8.05;101210.47;5074286;28;20048;-61
2022/08/10 09:34:22;;;;;;;5.07;4.32;;;;;;;53.19;7.74;101214.75;5062190;28;20044;-62
2022/08/10 09:37:00;;;;;;;3.28;2.97;;;;;;;53.18;7.54;101213.13;5085512;28;20465;-62
2022/08/10 09:39:35;;;;;;;5.25;4.85;;;;;;;53.28;7.65;101202.16;5085488;28;20519;-62
2022/08/10 09:42:11;;;;;;;5.20;4.22;;;;;;;53.47;7.74;101196.56;5074778;28;20064;-62
2022/08/10 09:44:52;;;;;;;5.65;5.25;;;;;;;53.88;7.38;101196.50;5073806;28;20060;-62
2022/08/10 09:47:32;;;;;;;5.43;5.07;;;;;;;54.15;7.00;101196.69;5074171;28;20508;-62
2022/08/10 09:50:08;;;;;;;4.47;3.92;;;;;;;54.27;7.37;101196.97;5071984;28;20059;-62
2022/08/10 09:52:48;;;;;;;5.18;4.72;;;;;;;54.22;7.23;101189.06;5084249;28;20044;-61
2022/08/10 09:55:26;;;;;;;4.05;3.40;;;;;;;52.98;7.82;101194.94;5089340;28;20420;-62
2022/08/10 09:58:07;;;;;;;5.85;4.22;;;;;;;53.41;7.65;101180.25;5093780;28;20048;-61
2022/08/10 10:00:44;;;;;;;6.15;5.75;;;;;;;53.02;7.95;101174.47;5080253;28;20063;-62
2022/08/10 10:03:16;;;;;;;5.80;4.07;;;;;;;53.65;7.61;101178.75;5073851;28;20052;-62
2022/08/10 10:05:53;;;;;;;5.47;5.00;;;;;;;52.69;7.98;101185.47;5075795;28;20389;-61
2022/08/10 10:08:27;;;;;;;5.05;4.55;;;;;;;50.40;9.25;101187.97;5073414;28;20067;-62
2022/08/10 10:11:05;;;;;;;5.40;5.00;;;;;;;50.50;8.94;101179.38;5072852;28;20056;-61
2022/08/10 10:13:41;;;;;;;4.70;4.18;;;;;;;51.15;8.85;101167.50;5073414;28;20044;-62
2022/08/10 10:16:23;;;;;;;5.10;4.67;;;;;;;51.75;8.80;101180.94;5074724;28;20406;-62
2022/08/10 10:19:07;;;;;;;4.28;3.85;;;;;;;52.35;8.55;101171.84;5090906;28;20493;-62
2022/08/10 10:21:43;;;;;;;5.07;4.57;;;;;;;52.92;8.00;101173.53;5077600;28;20059;-62
2022/08/10 10:24:19;;;;;;;4.85;4.38;;;;;;;52.85;7.91;101162.47;5073613;28;20056;-62
2022/08/10 10:26:53;;;;;;;5.65;5.25;;;;;;;53.06;7.90;101159.97;5072966;28;20052;-61
2022/08/10 10:29:32;;;;;;;4.97;4.57;;;;;;;52.05;8.10;101149.66;5071342;28;20063;-61
2022/08/10 10:32:14;;;;;;;6.60;6.10;;;;;;;53.00;7.65;101149.69;5076957;28;20063;-62
2022/08/10 10:34:49;;;;;;;5.40;4.90;;;;;;;53.21;7.60;101152.41;5073240;28;20057;-62
2022/08/10 10:37:19;;;;;;;5.38;4.90;;;;;;;53.43;7.63;101144.69;5073109;28;20400;-61
2022/08/10 10:39:52;;;;;;;6.22;5.38;;;;;;;53.54;7.27;101150.22;5072985;28;20045;-61
2022/08/10 10:42:27;;;;;;;4.68;4.30;;;;;;;53.56;7.49;101150.41;5072400;28;20056;-62
2022/08/10 10:45:06;;;;;;;5.82;4.47;;;;;;;53.61;7.32;101137.47;5075728;28;20522;-61
2022/08/10 10:47:51;;;;;;;5.68;5.18;;;;;;;53.93;7.27;101145.59;5073812;28;20049;-61
2022/08/10 10:50:27;;;;;;;8.05;7.55;;;;;;;53.52;7.48;101135.94;5072828;28;20408;-61
2022/08/10 10:53:03;;;;;;;4.90;4.45;;;;;;;52.63;7.70;101135.16;5073037;28;20412;-61
2022/08/10 10:55:38;;;;;;;5.82;5.25;;;;;;;51.54;8.61;101139.50;5073116;28;20512;-61
2022/08/10 10:58:15;;;;;;;5.72;5.20;;;;;;;52.01;8.26;101124.69;5072146;28;20052;-61
2022/08/10 11:00:58;;;;;;;4.57;3.83;;;;;;;51.81;8.24;101133.25;5092378;28;20049;-61
2022/08/10 11:03:54;;;;;;;5.82;5.32;;;;;;;50.53;8.36;101142.63;5072730;28;20060;-61
2022/08/10 11:06:36;;;;;;;5.03;4.55;;;;;;;48.84;9.82;101134.94;5072016;28;20053;-61
2022/08/10 11:09:11;;;;;;;7.22;3.83;;;;;;;49.38;9.80;101124.59;5072310;28;20053;-61
2022/08/10 11:11:41;;;;;;;5.38;4.97;;;;;;;50.01;9.31;101129.75;5072140;28;20048;-60
2022/08/10 11:14:15;;;;;;;7.70;3.95;;;;;;;49.80;9.56;101117.94;5081119;28;20047;-61
2022/08/10 11:16:48;;;;;;;3.88;3.15;;;;;;;50.73;8.81;101123.94;5091251;28;20051;-61
2022/08/10 11:19:28;;;;;;;4.63;4.22;;;;;;;51.14;8.43;101125.16;5072418;28;20060;-60
2022/08/10 11:22:05;;;;;;;4.40;3.42;;;;;;;51.40;8.50;101116.50;5072043;28;20052;-60
2022/08/10 11:24:41;;;;;;;4.55;3.92;;;;;;;51.56;8.88;101121.91;5072497;28;20059;-60
2022/08/10 11:27:15;;;;;;;5.43;4.65;;;;;;;51.21;9.11;101117.63;5073552;28;20052;-60
2022/08/10 11:29:51;;;;;;;5.05;4.45;;;;;;;50.39;9.19;101111.47;5072132;28;20063;-60
2022/08/10 11:32:25;;;;;;;5.43;4.75;;;;;;;51.31;8.73;101109.75;5071702;28;20048;-60
2022/08/10 11:35:03;;;;;;;5.32;4.85;;;;;;;51.05;9.03;101113.78;5072488;28;20390;-60
2022/08/10 11:37:38;;;;;;;4.45;3.55;;;;;;;51.27;8.51;101105.59;5071831;28;20044;-60
2022/08/10 11:40:12;;;;;;;4.85;4.45;;;;;;;51.08;8.68;101102.94;5068284;28;20060;-60
2022/08/10 11:42:44;;;;;;;3.65;2.65;;;;;;;51.10;9.37;101092.09;5084452;28;20059;-60
2022/08/10 11:45:17;;;;;;;6.03;5.45;;;;;;;51.43;8.63;101097.50;5072306;28;20057;-60
2022/08/10 11:47:51;;;;;;;5.25;4.85;;;;;;;51.80;8.45;101095.19;5071356;28;20052;-60
2022/08/10 11:50:25;;;;;;;5.97;5.35;;;;;;;51.54;8.45;101092.00;5071773;28;20385;-60
2022/08/10 11:53:03;;;;;;;4.68;4.28;;;;;;;51.26;8.62;101101.03;5072074;28;20056;-60